Time;durP1;ratioP1;P1;durP2;ratioP2;P2;SDS_P1;SDS_P2;PMS_P1;PMS_P2;Temp;Humidity;BMP_temperature;BMP_pressure;BME280_temperature;BME280_humidity;BME280_pressure;Samples;Min_cycle;Max_cycle;Signal;HPM_P1;HPM_P2
2022/07/07 00:00:52;;;;;;;2.03;0.80;;;;;;;;;;8315621;28;20133;-61
2022/07/07 00:04:52;;;;;;;1.27;0.65;;;;;;;;;;8317500;28;20020;-61
2022/07/07 00:08:54;;;;;;;0.57;0.50;;;;;;;;;;8313309;28;20016;-60
2022/07/07 00:12:54;;;;;;;0.77;0.60;;;;;;;;;;8305425;28;20345;-60
2022/07/07 00:16:54;;;;;;;1.42;0.80;;;;;;;;;;8316596;28;20030;-60
2022/07/07 00:20:55;;;;;;;0.93;0.63;;;;;;;;;;8315772;28;20241;-61
2022/07/07 00:24:55;;;;;;;0.60;0.60;;;;;;;;;;8316914;28;20637;-60
2022/07/07 00:28:55;;;;;;;1.70;0.80;;;;;;;;;;8317641;28;20079;-62
2022/07/07 00:32:56;;;;;;;0.60;0.60;;;;;;;;;;8315420;28;21842;-61
2022/07/07 00:36:56;;;;;;;4.45;0.90;;;;;;;;;;8316090;28;20029;-60
2022/07/07 00:40:56;;;;;;;1.13;0.70;;;;;;;;;;8315575;28;21208;-60
2022/07/07 00:44:56;;;;;;;5.07;0.73;;;;;;;;;;8317084;28;20269;-60
2022/07/07 00:48:57;;;;;;;1.65;0.90;;;;;;;;;;8318989;28;20040;-60
2022/07/07 00:52:57;;;;;;;1.63;0.60;;;;;;;;;;8316567;28;20030;-60
2022/07/07 00:56:57;;;;;;;1.92;0.80;;;;;;;;;;8317213;28;20036;-60
2022/07/07 01:00:57;;;;;;;1.77;0.77;;;;;;;;;;8316875;28;20148;-61
2022/07/07 01:05:01;;;;;;;1.13;0.70;;;;;;;;;;8315902;28;20465;-60
2022/07/07 01:09:01;;;;;;;0.60;0.60;;;;;;;;;;8316429;28;20013;-60
2022/07/07 01:13:02;;;;;;;3.20;0.57;;;;;;;;;;8312739;28;20024;-60
2022/07/07 01:17:02;;;;;;;1.33;0.63;;;;;;;;;;8314968;28;20109;-61
2022/07/07 01:21:05;;;;;;;3.10;0.70;;;;;;;;;;8314886;28;20501;-60
2022/07/07 01:25:06;;;;;;;2.00;0.83;;;;;;;;;;8314626;28;20031;-60
2022/07/07 01:29:06;;;;;;;0.85;0.70;;;;;;;;;;8311006;28;20033;-60
2022/07/07 01:33:06;;;;;;;0.60;0.60;;;;;;;;;;8312236;28;20048;-60
2022/07/07 01:37:10;;;;;;;0.95;0.68;;;;;;;;;;8316379;28;20036;-60
2022/07/07 01:41:10;;;;;;;1.38;0.70;;;;;;;;;;8315430;28;20146;-60
2022/07/07 01:45:10;;;;;;;1.83;0.70;;;;;;;;;;8316150;28;20482;-60
2022/07/07 01:49:10;;;;;;;2.43;0.80;;;;;;;;;;8311712;28;20031;-60
2022/07/07 01:53:11;;;;;;;2.15;0.80;;;;;;;;;;8312526;28;20036;-60
2022/07/07 01:57:11;;;;;;;1.58;0.90;;;;;;;;;;8311401;28;20033;-61
2022/07/07 02:01:11;;;;;;;2.47;0.75;;;;;;;;;;8310669;28;20140;-60
2022/07/07 02:05:11;;;;;;;3.00;0.80;;;;;;;;;;8312709;28;20112;-60
2022/07/07 02:09:12;;;;;;;3.00;0.73;;;;;;;;;;8311103;28;20032;-60
2022/07/07 02:13:12;;;;;;;1.23;0.70;;;;;;;;;;8313119;28;20535;-60
2022/07/07 02:17:12;;;;;;;0.90;0.70;;;;;;;;;;8314067;28;20029;-60
2022/07/07 02:21:13;;;;;;;1.48;0.90;;;;;;;;;;8310612;28;20122;-61
2022/07/07 02:25:13;;;;;;;2.63;0.80;;;;;;;;;;8309715;28;20025;-60
2022/07/07 02:29:13;;;;;;;3.67;0.70;;;;;;;;;;8315371;28;20025;-60
2022/07/07 02:33:13;;;;;;;3.17;0.98;;;;;;;;;;8318617;28;20285;-60
2022/07/07 02:37:13;;;;;;;3.83;1.15;;;;;;;;;;8327798;28;20447;-60
2022/07/07 02:41:13;;;;;;;2.55;0.85;;;;;;;;;;8320624;28;20030;-60
2022/07/07 02:45:14;;;;;;;3.17;0.90;;;;;;;;;;8323131;28;20021;-61
2022/07/07 02:49:14;;;;;;;1.60;1.00;;;;;;;;;;8327475;28;20078;-61
2022/07/07 02:53:14;;;;;;;1.35;0.98;;;;;;;;;;8322436;28;20040;-60
2022/07/07 02:57:15;;;;;;;3.25;1.30;;;;;;;;;;8326604;28;20033;-60
2022/07/07 03:01:15;;;;;;;0.80;0.80;;;;;;;;;;8320848;28;21022;-60
2022/07/07 03:05:15;;;;;;;1.83;0.98;;;;;;;;;;8326699;28;20017;-60
2022/07/07 03:09:16;;;;;;;4.77;1.20;;;;;;;;;;8323917;28;20032;-60
2022/07/07 03:13:16;;;;;;;1.95;1.13;;;;;;;;;;8324465;28;20033;-60
2022/07/07 03:17:16;;;;;;;2.47;1.08;;;;;;;;;;8322418;28;20033;-60
2022/07/07 03:21:16;;;;;;;2.13;1.00;;;;;;;;;;8324347;28;20389;-60
2022/07/07 03:25:17;;;;;;;2.83;1.30;;;;;;;;;;8322759;28;20119;-60
2022/07/07 03:29:17;;;;;;;3.53;1.38;;;;;;;;;;8326022;28;20060;-60
2022/07/07 03:33:17;;;;;;;2.03;1.07;;;;;;;;;;8321122;28;20404;-60
2022/07/07 03:37:17;;;;;;;2.67;1.40;;;;;;;;;;8324451;28;20456;-60
2022/07/07 03:41:18;;;;;;;4.05;1.58;;;;;;;;;;8323681;28;20034;-60
2022/07/07 03:45:18;;;;;;;3.60;1.40;;;;;;;;;;8318990;28;20814;-60
2022/07/07 03:49:18;;;;;;;3.60;1.50;;;;;;;;;;8319087;28;20312;-60
2022/07/07 03:53:18;;;;;;;3.60;1.40;;;;;;;;;;8318704;28;20401;-60
2022/07/07 03:57:18;;;;;;;3.80;1.33;;;;;;;;;;8320358;28;20085;-60
2022/07/07 04:01:19;;;;;;;2.20;1.20;;;;;;;;;;8315448;28;20393;-60
2022/07/07 04:05:19;;;;;;;2.58;1.40;;;;;;;;;;8324868;28;20030;-60
2022/07/07 04:09:19;;;;;;;3.00;1.40;;;;;;;;;;8326728;28;20099;-61
2022/07/07 04:13:20;;;;;;;3.50;1.75;;;;;;;;;;8323499;28;20017;-60
2022/07/07 04:17:20;;;;;;;3.55;1.40;;;;;;;;;;8325676;28;20040;-60
2022/07/07 04:21:20;;;;;;;5.70;1.70;;;;;;;;;;8326486;28;20116;-60
2022/07/07 04:25:20;;;;;;;3.53;1.30;;;;;;;;;;8326930;28;20559;-60
2022/07/07 04:29:21;;;;;;;4.68;1.42;;;;;;;;;;8323662;28;20545;-61
2022/07/07 04:33:21;;;;;;;6.35;1.40;;;;;;;;;;8327342;28;20762;-60
2022/07/07 04:37:21;;;;;;;5.13;1.63;;;;;;;;;;8325417;28;20040;-60
2022/07/07 04:41:22;;;;;;;10.30;1.75;;;;;;;;;;8322679;28;21050;-60
2022/07/07 04:45:22;;;;;;;7.07;1.65;;;;;;;;;;8327470;28;20681;-60
2022/07/07 04:49:22;;;;;;;8.70;1.67;;;;;;;;;;8325930;28;20037;-60
2022/07/07 04:53:22;;;;;;;9.68;1.55;;;;;;;;;;8324999;28;20025;-61
2022/07/07 04:57:22;;;;;;;7.95;1.83;;;;;;;;;;8316266;28;20029;-60
2022/07/07 05:01:23;;;;;;;4.90;1.80;;;;;;;;;;8314475;28;20182;-60
2022/07/07 05:05:23;;;;;;;7.40;1.90;;;;;;;;;;8314116;28;20032;-60
2022/07/07 05:09:23;;;;;;;4.18;1.58;;;;;;;;;;8313583;28;20074;-60
2022/07/07 05:13:23;;;;;;;4.03;1.40;;;;;;;;;;8318148;28;20561;-60
2022/07/07 05:17:23;;;;;;;3.83;1.88;;;;;;;;;;8317177;28;20036;-60
2022/07/07 05:21:24;;;;;;;4.88;1.77;;;;;;;;;;8315383;28;20076;-60
2022/07/07 05:25:24;;;;;;;4.43;1.75;;;;;;;;;;8313643;28;20152;-59
2022/07/07 05:29:24;;;;;;;6.85;2.03;;;;;;;;;;8314129;28;20024;-60
2022/07/07 05:33:24;;;;;;;4.10;1.92;;;;;;;;;;8316011;28;20577;-60
2022/07/07 05:37:24;;;;;;;5.28;1.52;;;;;;;;;;8315589;28;20033;-60
2022/07/07 05:41:25;;;;;;;4.90;1.85;;;;;;;;;;8312525;28;20481;-59
2022/07/07 05:45:25;;;;;;;3.25;1.70;;;;;;;;;;8312604;28;20545;-60
2022/07/07 05:49:26;;;;;;;7.97;2.30;;;;;;;;;;8312632;28;20078;-60
2022/07/07 05:53:26;;;;;;;6.10;1.70;;;;;;;;;;8314272;28;20028;-60
2022/07/07 05:57:26;;;;;;;10.60;2.50;;;;;;;;;;8312955;28;20284;-60
2022/07/07 06:01:26;;;;;;;3.55;2.00;;;;;;;;;;8312976;28;20086;-60
2022/07/07 06:05:26;;;;;;;4.55;1.88;;;;;;;;;;8314558;28;20029;-60
2022/07/07 06:09:28;;;;;;;5.68;1.90;;;;;;;;;;8315332;28;20405;-60
2022/07/07 06:13:28;;;;;;;3.72;1.90;;;;;;;;;;8312936;28;20036;-60
2022/07/07 06:17:28;;;;;;;7.68;2.20;;;;;;;;;;8312565;28;20577;-61
2022/07/07 06:21:28;;;;;;;8.07;2.28;;;;;;;;;;8312168;28;20275;-60
2022/07/07 06:25:28;;;;;;;5.40;2.00;;;;;;;;;;8314821;28;20037;-59
2022/07/07 06:29:29;;;;;;;7.20;2.20;;;;;;;;;;8311420;28;20561;-60
2022/07/07 06:33:29;;;;;;;7.95;2.30;;;;;;;;;;8310329;28;20067;-60
2022/07/07 06:37:29;;;;;;;6.30;2.00;;;;;;;;;;8315127;28;20060;-60
2022/07/07 06:41:36;;;;;;;4.05;2.00;;;;;;;;;;8311156;28;20497;-60
2022/07/07 06:45:36;;;;;;;5.20;1.80;;;;;;;;;;8312043;28;20418;-60
2022/07/07 06:49:36;;;;;;;5.97;2.08;;;;;;;;;;8313525;28;20028;-60
2022/07/07 06:53:36;;;;;;;8.60;2.20;;;;;;;;;;8317036;28;20472;-60
2022/07/07 06:57:36;;;;;;;7.28;2.75;;;;;;;;;;8316162;28;20029;-60
2022/07/07 07:01:37;;;;;;;4.50;1.90;;;;;;;;;;8314013;28;20459;-60
2022/07/07 07:05:37;;;;;;;9.90;2.45;;;;;;;;;;8313989;28;20563;-60
2022/07/07 07:09:37;;;;;;;12.23;2.08;;;;;;;;;;8315803;28;20029;-60
2022/07/07 07:13:37;;;;;;;8.88;1.77;;;;;;;;;;8313203;28;20568;-60
2022/07/07 07:17:37;;;;;;;5.70;1.85;;;;;;;;;;8310967;28;20486;-60
2022/07/07 07:21:38;;;;;;;6.53;1.90;;;;;;;;;;8318848;28;20612;-60
2022/07/07 07:25:38;;;;;;;8.98;1.73;;;;;;;;;;8320585;28;20031;-60
2022/07/07 07:29:38;;;;;;;7.50;1.63;;;;;;;;;;8320973;28;20021;-60
2022/07/07 07:33:38;;;;;;;6.43;2.10;;;;;;;;;;8318292;28;20311;-60
2022/07/07 07:37:39;;;;;;;4.70;1.60;;;;;;;;;;8318845;28;20096;-60
2022/07/07 07:41:39;;;;;;;5.80;1.88;;;;;;;;;;8317541;28;20789;-60
2022/07/07 07:45:41;;;;;;;4.10;1.83;;;;;;;;;;8320828;28;20137;-60
2022/07/07 07:49:41;;;;;;;4.97;1.80;;;;;;;;;;8317478;28;20086;-60
2022/07/07 07:53:41;;;;;;;6.15;1.83;;;;;;;;;;8315556;28;20577;-60
2022/07/07 07:57:41;;;;;;;2.40;2.00;;;;;;;;;;8318366;28;20561;-60
2022/07/07 08:01:42;;;;;;;2.90;2.10;;;;;;;;;;8314872;28;20048;-60
2022/07/07 08:05:42;;;;;;;6.60;1.90;;;;;;;;;;8318373;28;20048;-60
2022/07/07 08:09:42;;;;;;;5.22;1.83;;;;;;;;;;8317241;28;20029;-59
2022/07/07 08:13:43;;;;;;;3.85;1.90;;;;;;;;;;8317011;28;20032;-60
2022/07/07 08:17:44;;;;;;;6.13;1.63;;;;;;;;;;8318287;28;20033;-59
2022/07/07 08:21:47;;;;;;;4.80;1.60;;;;;;;;;;8322917;28;20034;-59
2022/07/07 08:25:47;;;;;;;2.05;1.30;;;;;;;;;;8315479;28;20501;-60
2022/07/07 08:29:47;;;;;;;6.43;1.70;;;;;;;;;;8311689;28;20118;-59
2022/07/07 08:33:47;;;;;;;9.33;1.83;;;;;;;;;;8314788;28;20389;-59
2022/07/07 08:37:48;;;;;;;6.82;1.52;;;;;;;;;;8315722;28;20283;-59
2022/07/07 08:41:48;;;;;;;1.70;1.50;;;;;;;;;;8317814;28;20090;-60
2022/07/07 08:45:48;;;;;;;5.00;1.83;;;;;;;;;;8315814;28;20126;-60
2022/07/07 08:49:49;;;;;;;5.00;1.30;;;;;;;;;;8316488;28;20033;-59
2022/07/07 08:53:49;;;;;;;8.10;1.47;;;;;;;;;;8315956;28;20042;-60
2022/07/07 08:57:52;;;;;;;1.83;1.30;;;;;;;;;;8316983;28;20056;-59
2022/07/07 09:01:53;;;;;;;2.97;1.50;;;;;;;;;;8316315;28;20590;-59
2022/07/07 09:05:54;;;;;;;3.75;1.40;;;;;;;;;;8315872;28;20128;-60
2022/07/07 09:09:54;;;;;;;2.80;1.30;;;;;;;;;;8315378;28;20067;-60
2022/07/07 09:14:08;;;;;;;4.55;1.40;;;;;;;;;;8318833;28;20294;-60
2022/07/07 09:18:09;;;;;;;1.58;1.20;;;;;;;;;;8314386;28;20227;-60
2022/07/07 09:22:10;;;;;;;5.20;1.33;;;;;;;;;;8316572;28;20642;-60
2022/07/07 09:26:10;;;;;;;5.35;1.20;;;;;;;;;;8314802;28;20569;-60
2022/07/07 09:30:11;;;;;;;3.40;1.30;;;;;;;;;;8314631;28;20277;-60
2022/07/07 09:34:12;;;;;;;3.72;1.30;;;;;;;;;;8316762;28;20660;-60
2022/07/07 09:38:17;;;;;;;1.73;1.30;;;;;;;;;;8314972;28;20041;-60
2022/07/07 09:42:22;;;;;;;1.60;1.10;;;;;;;;;;8312262;28;20078;-59
2022/07/07 09:46:23;;;;;;;2.00;1.30;;;;;;;;;;8315120;28;20037;-59
2022/07/07 09:50:23;;;;;;;1.30;1.10;;;;;;;;;;8314231;28;20104;-59
2022/07/07 09:54:23;;;;;;;1.30;1.10;;;;;;;;;;8312950;28;20119;-59
2022/07/07 09:58:23;;;;;;;3.25;1.00;;;;;;;;;;8316635;28;20262;-59
2022/07/07 10:02:25;;;;;;;3.35;1.20;;;;;;;;;;8311062;28;20064;-58
2022/07/07 10:06:26;;;;;;;1.05;1.00;;;;;;;;;;8316985;28;20036;-59
2022/07/07 10:10:27;;;;;;;1.23;1.13;;;;;;;;;;8314600;28;20036;-58
2022/07/07 10:14:33;;;;;;;2.22;1.00;;;;;;;;;;8312347;28;20028;-58
2022/07/07 10:18:33;;;;;;;1.63;1.52;;;;;;;;;;8311966;28;20458;-59
2022/07/07 10:22:34;;;;;;;3.55;1.33;;;;;;;;;;8315492;28;20679;-59
2022/07/07 10:26:35;;;;;;;1.15;1.13;;;;;;;;;;8313681;28;20032;-59
2022/07/07 10:30:36;;;;;;;2.13;1.13;;;;;;;;;;8313084;28;20487;-60
2022/07/07 10:34:37;;;;;;;1.58;1.17;;;;;;;;;;8314066;28;20021;-60
2022/07/07 10:38:38;;;;;;;1.83;1.25;;;;;;;;;;8316260;28;20076;-61
2022/07/07 10:42:38;;;;;;;1.67;1.40;;;;;;;;;;8317147;28;20079;-60
2022/07/07 10:46:39;;;;;;;3.25;1.30;;;;;;;;;;8312424;28;20157;-60
2022/07/07 10:50:39;;;;;;;3.80;1.13;;;;;;;;;;8316454;28;20056;-58
2022/07/07 10:54:40;;;;;;;4.13;1.00;;;;;;;;;;8323202;28;20485;-59
2022/07/07 10:58:43;;;;;;;1.25;0.90;;;;;;;;;;8319000;28;20557;-59
2022/07/07 11:02:47;;;;;;;2.60;1.00;;;;;;;;;;8319580;28;20790;-60
2022/07/07 11:06:47;;;;;;;;;;;;;;;;;;8319744;28;20100;-60
2022/07/07 11:10:49;;;;;;;1.80;0.80;;;;;;;;;;8318710;28;19917;-60
2022/07/07 11:15:09;;;;;;;1.77;0.80;;;;;;;;;;8319575;28;20473;-60
2022/07/07 11:19:10;;;;;;;0.77;0.77;;;;;;;;;;8318512;28;20124;-59
2022/07/07 11:23:12;;;;;;;1.23;0.73;;;;;;;;;;8319864;28;20062;-60
2022/07/07 11:27:12;;;;;;;2.00;0.80;;;;;;;;;;8320205;28;20220;-60
2022/07/07 11:31:13;;;;;;;6.50;0.93;;;;;;;;;;8317955;28;20677;-60
2022/07/07 11:35:13;;;;;;;1.10;0.80;;;;;;;;;;8319287;28;20256;-60
2022/07/07 11:39:14;;;;;;;1.48;0.70;;;;;;;;;;8322533;28;20055;-60
2022/07/07 11:43:20;;;;;;;0.68;0.63;;;;;;;;;;8318857;28;20029;-63
2022/07/07 11:47:22;;;;;;;0.70;0.70;;;;;;;;;;8321291;28;20048;-60
2022/07/07 11:51:29;;;;;;;1.45;0.80;;;;;;;;;;8316103;28;20025;-59
2022/07/07 11:55:29;;;;;;;1.42;0.90;;;;;;;;;;8321868;28;20036;-59
2022/07/07 11:59:29;;;;;;;1.13;0.87;;;;;;;;;;8319109;28;20625;-60
2022/07/07 12:03:31;;;;;;;1.13;0.65;;;;;;;;;;8315825;28;20041;-60
2022/07/07 12:07:31;;;;;;;1.58;0.70;;;;;;;;;;8316222;28;20477;-60
2022/07/07 12:11:35;;;;;;;0.70;0.70;;;;;;;;;;8317534;28;20036;-60
2022/07/07 12:15:39;;;;;;;0.93;0.70;;;;;;;;;;8319849;28;20194;-61
2022/07/07 12:19:49;;;;;;;1.02;0.68;;;;;;;;;;8315740;28;20055;-60
2022/07/07 12:23:51;;;;;;;1.55;0.60;;;;;;;;;;8321194;28;20028;-60
2022/07/07 12:27:58;;;;;;;0.68;0.60;;;;;;;;;;8316282;28;20025;-60
2022/07/07 12:31:59;;;;;;;1.27;0.60;;;;;;;;;;8319802;28;20294;-60
2022/07/07 12:36:09;;;;;;;0.50;0.50;;;;;;;;;;8320917;28;20094;-60
2022/07/07 12:40:13;;;;;;;0.75;0.75;;;;;;;;;;8318343;28;20795;-60
2022/07/07 12:44:13;;;;;;;1.85;0.60;;;;;;;;;;8316848;28;20090;-60
2022/07/07 12:48:17;;;;;;;4.32;0.60;;;;;;;;;;8318980;28;20160;-59
2022/07/07 12:52:17;;;;;;;0.85;0.60;;;;;;;;;;8319893;28;20021;-60
2022/07/07 12:56:17;;;;;;;0.85;0.52;;;;;;;;;;8315493;28;20028;-60
2022/07/07 13:00:24;;;;;;;1.10;0.70;;;;;;;;;;8317576;28;20032;-60
2022/07/07 13:04:24;;;;;;;1.25;0.80;;;;;;;;;;8319033;28;20457;-60
2022/07/07 13:08:25;;;;;;;1.50;0.80;;;;;;;;;;8316080;28;20385;-61
2022/07/07 13:12:25;;;;;;;1.77;0.60;;;;;;;;;;8317775;28;20037;-60
2022/07/07 13:16:25;;;;;;;4.32;0.70;;;;;;;;;;8316905;28;20063;-60
2022/07/07 13:20:26;;;;;;;5.05;0.70;;;;;;;;;;8315898;28;20028;-59
2022/07/07 13:24:26;;;;;;;2.60;0.70;;;;;;;;;;8317083;28;20041;-60
2022/07/07 13:28:26;;;;;;;0.63;0.63;;;;;;;;;;8316750;28;20017;-60
2022/07/07 13:32:26;;;;;;;1.47;0.80;;;;;;;;;;8314658;28;20032;-60
2022/07/07 13:36:27;;;;;;;2.20;0.80;;;;;;;;;;8316923;28;20025;-61
2022/07/07 13:40:27;;;;;;;2.20;0.70;;;;;;;;;;8314677;28;20115;-61
2022/07/07 13:44:27;;;;;;;1.33;0.80;;;;;;;;;;8317191;28;20029;-60
2022/07/07 13:48:28;;;;;;;0.73;0.70;;;;;;;;;;8314797;28;20430;-60
2022/07/07 13:52:28;;;;;;;2.80;0.73;;;;;;;;;;8319526;28;20836;-60
2022/07/07 13:56:29;;;;;;;1.27;0.70;;;;;;;;;;8316325;28;20402;-60
2022/07/07 14:00:30;;;;;;;4.60;0.80;;;;;;;;;;8315291;28;20037;-59
2022/07/07 14:04:31;;;;;;;3.63;0.88;;;;;;;;;;8313852;28;20885;-59
2022/07/07 14:08:31;;;;;;;1.35;0.70;;;;;;;;;;8314981;28;20049;-59
2022/07/07 14:12:31;;;;;;;1.52;0.70;;;;;;;;;;8313996;28;20039;-59
2022/07/07 14:16:31;;;;;;;3.93;1.00;;;;;;;;;;8311139;28;20615;-60
2022/07/07 14:20:31;;;;;;;1.77;0.70;;;;;;;;;;8312654;28;20989;-59
2022/07/07 14:24:32;;;;;;;0.80;0.80;;;;;;;;;;8316171;28;20037;-59
2022/07/07 14:28:32;;;;;;;0.63;0.63;;;;;;;;;;8315846;28;20131;-60
2022/07/07 14:32:32;;;;;;;1.38;0.90;;;;;;;;;;8315444;28;20322;-59
2022/07/07 14:36:32;;;;;;;1.38;0.80;;;;;;;;;;8312906;28;20581;-59
2022/07/07 14:40:33;;;;;;;0.70;0.70;;;;;;;;;;8312524;28;20025;-59
2022/07/07 14:44:33;;;;;;;2.80;0.70;;;;;;;;;;8315903;28;20248;-59
2022/07/07 14:48:34;;;;;;;0.95;0.70;;;;;;;;;;8313555;28;20325;-60
2022/07/07 14:52:34;;;;;;;3.58;0.80;;;;;;;;;;8316281;28;20028;-59
2022/07/07 14:56:35;;;;;;;1.77;0.90;;;;;;;;;;8313839;28;20472;-59
2022/07/07 15:00:35;;;;;;;5.05;0.80;;;;;;;;;;8315479;28;20655;-60
2022/07/07 15:04:35;;;;;;;1.50;0.50;;;;;;;;;;8315270;28;20048;-59
2022/07/07 15:08:35;;;;;;;0.85;0.80;;;;;;;;;;8314749;28;20039;-59
2022/07/07 15:12:35;;;;;;;2.20;0.80;;;;;;;;;;8314560;28;20025;-60
2022/07/07 15:16:36;;;;;;;2.35;0.70;;;;;;;;;;8315222;28;20807;-59
2022/07/07 15:20:36;;;;;;;1.20;0.90;;;;;;;;;;8314854;28;20294;-59
2022/07/07 15:24:36;;;;;;;2.43;0.70;;;;;;;;;;8315684;28;20753;-59
2022/07/07 15:28:36;;;;;;;1.53;0.70;;;;;;;;;;8313328;28;20079;-59
2022/07/07 15:32:36;;;;;;;2.05;0.77;;;;;;;;;;8314397;28;20041;-59
2022/07/07 15:36:37;;;;;;;1.42;1.02;;;;;;;;;;8313831;28;20545;-60
2022/07/07 15:40:37;;;;;;;1.30;0.80;;;;;;;;;;8317256;28;20135;-60
2022/07/07 15:44:37;;;;;;;1.80;0.80;;;;;;;;;;8319543;28;20036;-59
2022/07/07 15:48:42;;;;;;;2.20;0.93;;;;;;;;;;8317510;28;20029;-59
2022/07/07 15:52:43;;;;;;;1.55;0.90;;;;;;;;;;8322384;28;20017;-60
2022/07/07 15:56:43;;;;;;;0.90;0.70;;;;;;;;;;8319091;28;20048;-59
2022/07/07 16:00:43;;;;;;;0.70;0.70;;;;;;;;;;8319412;28;20044;-59
2022/07/07 16:04:43;;;;;;;1.95;1.00;;;;;;;;;;8318652;28;20021;-59
2022/07/07 16:08:43;;;;;;;0.68;0.68;;;;;;;;;;8318600;28;20541;-59
2022/07/07 16:12:44;;;;;;;1.95;0.88;;;;;;;;;;8317374;28;20490;-60
2022/07/07 16:16:44;;;;;;;2.15;0.90;;;;;;;;;;8317520;28;20585;-59
2022/07/07 16:20:44;;;;;;;2.47;0.80;;;;;;;;;;8320989;28;20028;-60
2022/07/07 16:24:45;;;;;;;1.75;0.50;;;;;;;;;;8317993;28;20036;-59
2022/07/07 16:28:46;;;;;;;0.60;0.60;;;;;;;;;;8315793;28;20029;-63
2022/07/07 16:32:46;;;;;;;1.40;0.70;;;;;;;;;;8321368;28;20044;-60
2022/07/07 16:36:46;;;;;;;1.73;0.70;;;;;;;;;;8317202;28;20029;-60
2022/07/07 16:40:47;;;;;;;0.57;0.57;;;;;;;;;;8318573;28;20045;-60
2022/07/07 16:44:48;;;;;;;0.70;0.60;;;;;;;;;;8319020;28;20477;-61
2022/07/07 16:48:48;;;;;;;3.28;0.60;;;;;;;;;;8317525;28;20098;-60
2022/07/07 16:52:48;;;;;;;1.23;0.80;;;;;;;;;;8318295;28;20043;-60
2022/07/07 16:56:48;;;;;;;0.68;0.63;;;;;;;;;;8319641;28;20272;-58
2022/07/07 17:00:49;;;;;;;2.10;0.70;;;;;;;;;;8316653;28;20420;-59
2022/07/07 17:04:49;;;;;;;1.55;0.60;;;;;;;;;;8318119;28;20048;-60
2022/07/07 17:08:49;;;;;;;0.60;0.60;;;;;;;;;;8319935;28;20332;-60
2022/07/07 17:12:49;;;;;;;1.10;0.80;;;;;;;;;;8315216;28;20647;-59
2022/07/07 17:16:50;;;;;;;1.00;0.70;;;;;;;;;;8315710;28;20076;-59
2022/07/07 17:20:50;;;;;;;1.58;0.70;;;;;;;;;;8318490;28;20204;-60
2022/07/07 17:24:50;;;;;;;2.50;0.65;;;;;;;;;;8315756;28;20033;-60
2022/07/07 17:28:50;;;;;;;0.60;0.60;;;;;;;;;;8317595;28;20111;-60
2022/07/07 17:32:50;;;;;;;1.08;0.75;;;;;;;;;;8313234;28;20041;-58
2022/07/07 17:36:51;;;;;;;0.90;0.77;;;;;;;;;;8316023;28;20382;-60
2022/07/07 17:40:51;;;;;;;0.82;0.70;;;;;;;;;;8317106;28;20738;-59
2022/07/07 17:44:51;;;;;;;0.73;0.70;;;;;;;;;;8316921;28;20066;-60
2022/07/07 17:48:51;;;;;;;0.60;0.60;;;;;;;;;;8315568;28;20521;-60
2022/07/07 17:52:52;;;;;;;1.45;0.77;;;;;;;;;;8317163;28;20364;-59
2022/07/07 17:56:52;;;;;;;1.63;0.70;;;;;;;;;;8314974;28;20537;-59
2022/07/07 18:00:52;;;;;;;0.90;0.80;;;;;;;;;;8313806;28;20440;-59
2022/07/07 18:04:53;;;;;;;2.15;0.75;;;;;;;;;;8313105;28;20952;-59
2022/07/07 18:08:53;;;;;;;1.40;0.80;;;;;;;;;;8314512;28;20107;-60
2022/07/07 18:12:53;;;;;;;0.77;0.60;;;;;;;;;;8314134;28;20063;-60
2022/07/07 18:16:53;;;;;;;0.90;0.70;;;;;;;;;;8312018;28;20032;-60
2022/07/07 18:20:54;;;;;;;0.60;0.60;;;;;;;;;;8317050;28;20029;-60
2022/07/07 18:24:54;;;;;;;0.95;0.80;;;;;;;;;;8315548;28;20417;-60
2022/07/07 18:28:54;;;;;;;0.65;0.60;;;;;;;;;;8314524;28;20133;-60
2022/07/07 18:32:54;;;;;;;1.90;0.82;;;;;;;;;;8310335;28;20041;-60
2022/07/07 18:36:55;;;;;;;0.98;0.70;;;;;;;;;;8315706;28;20024;-59
2022/07/07 18:40:55;;;;;;;1.02;0.80;;;;;;;;;;8316591;28;20204;-59
2022/07/07 18:44:55;;;;;;;1.65;0.85;;;;;;;;;;8314502;28;20021;-59
2022/07/07 18:48:56;;;;;;;1.25;0.80;;;;;;;;;;8311869;28;20098;-60
2022/07/07 18:52:56;;;;;;;2.05;0.90;;;;;;;;;;8315749;28;20047;-62
2022/07/07 18:56:57;;;;;;;2.17;0.77;;;;;;;;;;8314123;28;20677;-60
2022/07/07 19:00:57;;;;;;;1.85;0.85;;;;;;;;;;8312259;28;20533;-59
2022/07/07 19:04:57;;;;;;;0.63;0.63;;;;;;;;;;8313058;28;20142;-59
2022/07/07 19:08:57;;;;;;;4.50;0.80;;;;;;;;;;8311276;28;20056;-60
2022/07/07 19:12:58;;;;;;;0.80;0.70;;;;;;;;;;8311726;28;20287;-59
2022/07/07 19:16:59;;;;;;;1.48;0.80;;;;;;;;;;8316185;28;20033;-60
2022/07/07 19:21:00;;;;;;;2.20;0.82;;;;;;;;;;8320016;28;20717;-60
2022/07/07 19:25:01;;;;;;;1.40;0.90;;;;;;;;;;8316397;28;20698;-59
2022/07/07 19:29:01;;;;;;;1.57;0.80;;;;;;;;;;8318997;28;20374;-59
2022/07/07 19:33:02;;;;;;;0.70;0.70;;;;;;;;;;8316646;28;20114;-60
2022/07/07 19:37:02;;;;;;;1.05;0.80;;;;;;;;;;8316781;28;20661;-61
2022/07/07 19:41:02;;;;;;;1.70;0.90;;;;;;;;;;8319566;28;20239;-60
2022/07/07 19:45:02;;;;;;;1.25;0.90;;;;;;;;;;8319572;28;20957;-60
2022/07/07 19:49:04;;;;;;;1.73;0.90;;;;;;;;;;8318818;28;20017;-60
2022/07/07 19:53:04;;;;;;;1.45;0.75;;;;;;;;;;8312021;28;20279;-59
2022/07/07 19:57:04;;;;;;;1.33;0.80;;;;;;;;;;8316716;28;20021;-59
2022/07/07 20:01:04;;;;;;;2.03;0.82;;;;;;;;;;8313649;28;20577;-59
2022/07/07 20:05:05;;;;;;;1.83;0.80;;;;;;;;;;8315177;28;20481;-59
2022/07/07 20:09:05;;;;;;;1.02;0.80;;;;;;;;;;8313471;28;20025;-60
2022/07/07 20:13:05;;;;;;;1.77;0.98;;;;;;;;;;8316907;28;20482;-59
2022/07/07 20:17:05;;;;;;;1.77;0.73;;;;;;;;;;8317413;28;20062;-59
2022/07/07 20:21:07;;;;;;;1.00;0.70;;;;;;;;;;8316025;28;20548;-59
2022/07/07 20:25:08;;;;;;;0.77;0.77;;;;;;;;;;8315508;28;20028;-60
2022/07/07 20:29:08;;;;;;;1.58;1.10;;;;;;;;;;8313082;28;20687;-59
2022/07/07 20:33:08;;;;;;;4.67;1.20;;;;;;;;;;8312887;28;20075;-59
2022/07/07 20:37:09;;;;;;;7.10;1.20;;;;;;;;;;8316347;28;20529;-59
2022/07/07 20:41:09;;;;;;;4.07;1.40;;;;;;;;;;8315640;28;20368;-59
2022/07/07 20:45:09;;;;;;;2.72;1.27;;;;;;;;;;8316035;28;20028;-60
2022/07/07 20:49:10;;;;;;;6.85;1.85;;;;;;;;;;8317800;28;20036;-59
2022/07/07 20:53:10;;;;;;;4.93;1.30;;;;;;;;;;8314992;28;20457;-59
2022/07/07 20:57:10;;;;;;;5.57;1.60;;;;;;;;;;8314284;28;20548;-59
2022/07/07 21:01:11;;;;;;;3.65;1.30;;;;;;;;;;8312928;28;20147;-60
2022/07/07 21:05:11;;;;;;;5.68;1.67;;;;;;;;;;8317258;28;20032;-60
2022/07/07 21:09:11;;;;;;;5.47;1.50;;;;;;;;;;8312962;28;20064;-59
2022/07/07 21:13:13;;;;;;;10.57;1.70;;;;;;;;;;8311559;28;20036;-59
2022/07/07 21:17:13;;;;;;;8.75;1.95;;;;;;;;;;8312129;28;20033;-59
2022/07/07 21:21:14;;;;;;;7.10;1.55;;;;;;;;;;8314870;28;20087;-59
2022/07/07 21:25:14;;;;;;;7.53;1.77;;;;;;;;;;8317614;28;20259;-59
2022/07/07 21:29:15;;;;;;;5.70;1.67;;;;;;;;;;8315045;28;20428;-59
2022/07/07 21:33:15;;;;;;;5.30;1.60;;;;;;;;;;8314559;28;20121;-59
2022/07/07 21:37:15;;;;;;;6.65;1.88;;;;;;;;;;8316510;28;20379;-59
2022/07/07 21:41:16;;;;;;;8.65;2.03;;;;;;;;;;8315829;28;20606;-59
2022/07/07 21:45:17;;;;;;;5.65;1.70;;;;;;;;;;8318209;28;20048;-59
2022/07/07 21:49:18;;;;;;;7.72;1.73;;;;;;;;;;8312327;28;20597;-59
2022/07/07 21:53:22;;;;;;;6.32;1.73;;;;;;;;;;8310839;28;20469;-59
2022/07/07 21:57:22;;;;;;;7.40;1.70;;;;;;;;;;8314043;28;20152;-59
2022/07/07 22:01:22;;;;;;;8.68;1.55;;;;;;;;;;8314332;28;20080;-60
2022/07/07 22:09:43;;;;;;;4.93;1.33;;;;;;;;;;8313767;28;20774;-60
2022/07/07 22:13:43;;;;;;;6.25;1.45;;;;;;;;;;8315322;28;20033;-59
2022/07/07 22:17:43;;;;;;;4.70;1.60;;;;;;;;;;8314221;28;20117;-59
2022/07/07 22:21:43;;;;;;;5.53;1.50;;;;;;;;;;8312521;28;20036;-59
2022/07/07 22:25:43;;;;;;;7.05;2.10;;;;;;;;;;8315971;28;20033;-59
2022/07/07 22:29:43;;;;;;;7.43;1.67;;;;;;;;;;8315732;28;20036;-60
2022/07/07 22:33:44;;;;;;;7.22;1.50;;;;;;;;;;8312645;28;20132;-60
2022/07/07 22:37:44;;;;;;;7.03;1.63;;;;;;;;;;8314841;28;20032;-60
2022/07/07 22:41:44;;;;;;;11.95;1.52;;;;;;;;;;8315305;28;20459;-59
2022/07/07 22:45:44;;;;;;;7.32;1.50;;;;;;;;;;8314981;28;20043;-59
2022/07/07 22:49:45;;;;;;;6.30;1.70;;;;;;;;;;8320014;28;20032;-59
2022/07/07 22:53:45;;;;;;;9.35;1.58;;;;;;;;;;8317751;28;22050;-59
2022/07/07 22:57:45;;;;;;;4.32;1.42;;;;;;;;;;8322569;28;20065;-59
2022/07/07 23:01:45;;;;;;;9.50;2.25;;;;;;;;;;8321834;28;20317;-59
2022/07/07 23:05:46;;;;;;;7.43;1.50;;;;;;;;;;8320203;28;20029;-59
2022/07/07 23:09:46;;;;;;;9.05;1.90;;;;;;;;;;8320730;28;20061;-60
2022/07/07 23:13:46;;;;;;;4.80;1.58;;;;;;;;;;8319873;28;20756;-60
2022/07/07 23:17:46;;;;;;;6.20;1.50;;;;;;;;;;8318929;28;20469;-59
2022/07/07 23:21:46;;;;;;;5.63;1.50;;;;;;;;;;8319516;28;20094;-59
2022/07/07 23:25:47;;;;;;;6.10;1.63;;;;;;;;;;8319613;28;20044;-59
2022/07/07 23:29:47;;;;;;;6.07;1.43;;;;;;;;;;8319034;28;20025;-60
2022/07/07 23:33:47;;;;;;;3.97;1.37;;;;;;;;;;8316744;28;21008;-59
2022/07/07 23:37:47;;;;;;;5.43;1.42;;;;;;;;;;8317994;28;20696;-59
2022/07/07 23:41:47;;;;;;;5.15;1.70;;;;;;;;;;8318974;28;20105;-59
2022/07/07 23:45:48;;;;;;;3.13;1.08;;;;;;;;;;8319219;28;20068;-60
2022/07/07 23:49:48;;;;;;;4.45;1.20;;;;;;;;;;8319405;28;20060;-59
2022/07/07 23:53:48;;;;;;;5.03;1.25;;;;;;;;;;8320303;28;20443;-59
2022/07/07 23:57:48;;;;;;;5.25;1.50;;;;;;;;;;8318777;28;20123;-59
